Time;durP1;ratioP1;P1;durP2;ratioP2;P2;SDS_P1;SDS_P2;PMS_P1;PMS_P2;Temp;Humidity;BMP_temperature;BMP_pressure;BME280_temperature;BME280_humidity;BME280_pressure;Samples;Min_cycle;Max_cycle;Signal;HPM_P1;HPM_P2
2021/06/19 00:00:12;;;;;;;9.73;7.60;;;;;;;23.13;79.11;95325.22;1040208;28;20108;-82
2021/06/19 00:00:47;;;;;;;10.23;7.82;;;;;;;23.03;79.24;95312.44;1035399;28;20074;-79
2021/06/19 00:01:18;;;;;;;11.80;7.78;;;;;;;23.19;79.49;95339.56;1034140;28;20121;-81
2021/06/19 00:01:48;;;;;;;12.13;8.10;;;;;;;23.17;79.26;95339.84;1039193;28;20427;-80
2021/06/19 00:02:19;;;;;;;10.38;7.63;;;;;;;23.17;79.22;95336.31;1032895;28;20097;-79
2021/06/19 00:02:50;;;;;;;12.95;8.18;;;;;;;23.21;78.96;95345.53;1026979;28;20031;-81
2021/06/19 00:03:21;;;;;;;12.38;8.10;;;;;;;23.22;79.13;95341.75;1031197;28;20027;-80
2021/06/19 00:03:51;;;;;;;10.30;7.22;;;;;;;23.16;78.98;95327.38;1031094;28;20046;-81
2021/06/19 00:04:22;;;;;;;12.23;7.55;;;;;;;23.25;78.83;95347.44;1031499;28;20049;-81
2021/06/19 00:04:52;;;;;;;9.85;7.30;;;;;;;23.27;78.76;95350.69;1027624;29;20047;-81
2021/06/19 00:05:23;;;;;;;11.48;7.78;;;;;;;23.19;78.92;95331.44;1027744;29;20161;-80
2021/06/19 00:05:54;;;;;;;12.05;8.30;;;;;;;23.10;79.08;95318.44;1030769;28;20525;-82
2021/06/19 00:06:24;;;;;;;11.23;7.90;;;;;;;23.08;79.11;95320.59;1033167;28;20026;-79
2021/06/19 00:06:55;;;;;;;8.82;7.32;;;;;;;23.05;79.12;95314.88;1033411;28;20061;-81
2021/06/19 00:07:25;;;;;;;11.10;7.82;;;;;;;23.22;79.34;95344.47;1029472;28;20082;-80
2021/06/19 00:07:56;;;;;;;10.27;7.35;;;;;;;23.12;79.42;95331.72;1033671;28;20081;-81
2021/06/19 00:08:27;;;;;;;11.52;7.72;;;;;;;22.99;79.75;95316.78;1033102;28;20069;-82
2021/06/19 00:08:58;;;;;;;10.02;7.05;;;;;;;23.13;79.69;95347.69;1037344;28;20049;-80
2021/06/19 00:09:28;;;;;;;11.90;7.53;;;;;;;23.04;79.84;95334.91;1037232;28;20021;-80
2021/06/19 00:09:59;;;;;;;10.07;7.80;;;;;;;23.07;80.09;95345.25;1037002;28;20034;-79
2021/06/19 00:10:30;;;;;;;13.07;7.47;;;;;;;23.00;80.00;95326.53;1032729;28;20030;-79
2021/06/19 00:11:00;;;;;;;11.70;7.80;;;;;;;23.03;80.09;95328.69;1032563;28;20377;-80
2021/06/19 00:11:31;;;;;;;13.43;8.38;;;;;;;23.05;80.18;95345.53;1032711;28;20029;-78
2021/06/19 00:12:01;;;;;;;10.80;7.75;;;;;;;22.99;80.28;95333.03;1032730;28;20029;-79
2021/06/19 00:12:34;;;;;;;9.55;7.68;;;;;;;23.00;80.27;95329.22;1028539;28;20023;-81
2021/06/19 00:13:04;;;;;;;14.60;7.85;;;;;;;23.08;80.25;95345.00;1032804;28;20034;-81
2021/06/19 00:13:35;;;;;;;10.55;7.75;;;;;;;23.12;80.26;95340.66;1028562;28;20114;-80
2021/06/19 00:14:05;;;;;;;11.43;7.85;;;;;;;22.96;80.12;95310.00;1032795;28;20098;-81
2021/06/19 00:14:36;;;;;;;9.77;7.80;;;;;;;23.14;80.14;95345.78;1032700;28;20022;-81
2021/06/19 00:15:08;;;;;;;9.35;7.85;;;;;;;23.07;80.36;95335.22;1028691;28;20022;-80
2021/06/19 00:15:38;;;;;;;11.07;7.40;;;;;;;23.15;79.91;95344.72;1024561;29;20031;-81
2021/06/19 00:16:09;;;;;;;10.43;7.63;;;;;;;23.08;80.23;95339.56;1028628;28;20109;-81
2021/06/19 00:16:40;;;;;;;11.95;7.70;;;;;;;23.06;80.14;95336.31;1032694;28;20102;-81
2021/06/19 00:17:11;;;;;;;9.05;7.90;;;;;;;22.89;80.65;95319.50;1032711;28;20019;-81
2021/06/19 00:17:42;;;;;;;12.32;8.18;;;;;;;22.94;80.48;95317.59;1032681;28;20048;-80
2021/06/19 00:18:13;;;;;;;13.00;7.72;;;;;;;23.03;80.85;95338.72;1036754;28;20132;-81
2021/06/19 00:18:43;;;;;;;11.30;7.75;;;;;;;22.95;80.68;95331.94;1036386;28;20448;-82
2021/06/19 00:19:14;;;;;;;12.13;8.13;;;;;;;22.94;80.99;95333.84;1032376;28;20105;-81
2021/06/19 00:19:45;;;;;;;9.93;8.25;;;;;;;22.84;80.94;95322.19;1032293;28;20026;-82
2021/06/19 00:20:20;;;;;;;11.77;8.15;;;;;;;23.04;80.87;95346.59;1028372;28;20027;-81
2021/06/19 00:20:51;;;;;;;10.90;7.25;;;;;;;22.88;81.12;95328.69;1032192;28;20061;-80
2021/06/19 00:21:22;;;;;;;12.50;7.32;;;;;;;22.92;81.13;95336.00;1024834;29;20498;-80
2021/06/19 00:21:52;;;;;;;12.93;8.52;;;;;;;23.03;81.15;95353.06;1028785;28;20118;-81
2021/06/19 00:22:23;;;;;;;9.30;7.15;;;;;;;23.02;81.17;95356.84;1028656;28;20126;-81
2021/06/19 00:22:54;;;;;;;8.90;7.70;;;;;;;22.96;81.42;95349.81;1032927;28;20114;-79
2021/06/19 00:23:24;;;;;;;13.48;8.63;;;;;;;22.94;81.61;95341.16;1033170;28;20535;-81
2021/06/19 00:23:55;;;;;;;10.35;8.10;;;;;;;22.94;81.18;95352.00;1029120;28;20087;-81
2021/06/19 00:24:25;;;;;;;11.55;7.78;;;;;;;22.95;81.42;95353.59;1028736;28;20058;-80
2021/06/19 00:24:56;;;;;;;10.15;7.30;;;;;;;22.96;81.37;95344.41;1028849;28;20125;-81
2021/06/19 00:25:27;;;;;;;12.32;8.35;;;;;;;23.04;81.23;95362.84;1036663;28;20060;-80
2021/06/19 00:25:58;;;;;;;11.20;7.90;;;;;;;23.03;81.56;95354.97;1033161;28;20081;-80
2021/06/19 00:26:29;;;;;;;12.15;8.07;;;;;;;22.97;81.40;95346.84;1028690;28;20544;-80
2021/06/19 00:26:59;;;;;;;11.00;7.32;;;;;;;22.87;81.41;95338.72;1032994;28;20053;-79
2021/06/19 00:27:30;;;;;;;10.43;8.00;;;;;;;22.84;81.54;95331.13;1037085;28;20109;-80
2021/06/19 00:28:00;;;;;;;11.98;7.75;;;;;;;23.00;81.36;95350.09;1030068;28;20572;-81
2021/06/19 00:28:31;;;;;;;10.48;7.95;;;;;;;23.03;81.39;95354.97;1029091;28;20066;-80
2021/06/19 00:29:02;;;;;;;9.98;7.78;;;;;;;22.79;81.17;95304.84;1033109;28;20025;-80
2021/06/19 00:29:33;;;;;;;11.73;7.55;;;;;;;23.01;81.17;95344.41;1028737;28;20025;-82
2021/06/19 00:30:05;;;;;;;12.18;7.97;;;;;;;22.94;81.39;95336.56;1024678;29;20019;-79
2021/06/19 00:30:35;;;;;;;10.68;7.32;;;;;;;23.06;81.59;95360.72;1025033;29;20016;-83
2021/06/19 00:31:06;;;;;;;11.95;7.78;;;;;;;23.08;81.50;95358.53;1028745;28;20429;-80
2021/06/19 00:31:37;;;;;;;9.57;8.23;;;;;;;23.06;81.34;95366.13;1033046;28;20015;-80
2021/06/19 00:32:07;;;;;;;9.35;7.60;;;;;;;22.90;82.01;95350.88;1029128;28;20596;-81
2021/06/19 00:32:38;;;;;;;11.02;8.57;;;;;;;23.02;81.86;95367.69;1024756;29;20114;-82
2021/06/19 00:33:09;;;;;;;11.88;7.85;;;;;;;22.84;81.98;95339.25;1024724;29;20082;-81
2021/06/19 00:33:39;;;;;;;10.85;7.65;;;;;;;22.87;82.32;95352.25;1024619;29;20474;-80
2021/06/19 00:34:11;;;;;;;12.27;7.65;;;;;;;22.81;82.69;95350.59;1032708;28;20109;-80
2021/06/19 00:34:41;;;;;;;10.38;7.80;;;;;;;22.81;82.83;95341.69;1028654;28;20027;-83
2021/06/19 00:35:15;;;;;;;10.35;7.95;;;;;;;22.74;83.42;95358.97;1040719;28;20116;-83
2021/06/19 00:35:46;;;;;;;10.32;7.93;;;;;;;22.49;83.41;95318.34;1036579;28;20097;-83
2021/06/19 00:36:17;;;;;;;11.32;7.35;;;;;;;22.46;83.43;95308.03;1032813;28;20025;-82
2021/06/19 00:36:47;;;;;;;12.10;8.07;;;;;;;22.57;83.49;95332.16;1032817;28;20524;-80
2021/06/19 00:37:18;;;;;;;12.93;7.63;;;;;;;22.57;83.31;95326.75;1029155;28;20103;-80
2021/06/19 00:37:49;;;;;;;10.98;7.43;;;;;;;22.74;83.42;95352.75;1033388;28;20441;-80
2021/06/19 00:38:19;;;;;;;12.27;8.50;;;;;;;22.83;83.49;95372.00;1035663;28;20023;-81
2021/06/19 00:38:50;;;;;;;14.57;8.43;;;;;;;22.85;83.48;95380.66;1035516;28;20094;-80
2021/06/19 00:39:20;;;;;;;9.70;7.55;;;;;;;22.74;83.70;95364.41;1033708;28;20049;-80
2021/06/19 00:39:51;;;;;;;9.93;7.88;;;;;;;22.76;83.34;95364.13;1033343;28;20130;-80
2021/06/19 00:40:22;;;;;;;13.40;8.25;;;;;;;22.82;83.50;95375.81;1033140;28;20101;-82
2021/06/19 00:40:52;;;;;;;8.80;7.30;;;;;;;22.87;83.61;95373.91;1033123;28;20117;-81
2021/06/19 00:41:23;;;;;;;8.38;7.45;;;;;;;22.89;83.12;95379.06;1032841;28;20023;-81
2021/06/19 00:41:54;;;;;;;10.95;7.85;;;;;;;22.82;83.34;95367.69;1037010;28;20026;-80
2021/06/19 00:42:25;;;;;;;11.30;7.65;;;;;;;22.86;83.64;95385.81;1032648;28;20106;-80
2021/06/19 00:43:00;;;;;;;10.73;7.70;;;;;;;22.89;83.41;95384.47;1032734;28;20385;-81
2021/06/19 00:43:31;;;;;;;13.23;7.80;;;;;;;22.87;83.74;95389.34;1028629;28;20392;-80
2021/06/19 00:44:03;;;;;;;9.95;8.18;;;;;;;22.72;83.77;95354.94;1032370;28;20045;-81
2021/06/19 00:44:33;;;;;;;10.05;7.88;;;;;;;22.70;84.25;95366.03;1032831;28;20507;-80
2021/06/19 00:45:05;;;;;;;10.05;7.50;;;;;;;22.73;84.99;95379.03;1032608;28;20117;-79
2021/06/19 00:45:39;;;;;;;10.18;7.82;;;;;;;22.62;85.41;95371.94;1032563;28;20373;-81
2021/06/19 00:46:10;;;;;;;9.45;7.65;;;;;;;22.66;85.61;95378.47;1028367;28;20023;-80
2021/06/19 00:46:40;;;;;;;12.00;7.80;;;;;;;22.69;85.50;95377.91;1028594;28;20091;-80
2021/06/19 00:47:11;;;;;;;10.10;8.10;;;;;;;22.67;85.73;95380.09;1032551;28;20101;-80
2021/06/19 00:47:41;;;;;;;9.80;7.53;;;;;;;22.62;85.68;95374.66;1024608;28;20030;-82
2021/06/19 00:48:12;;;;;;;9.30;8.02;;;;;;;22.66;85.37;95372.22;1032147;28;20030;-79
2021/06/19 00:48:43;;;;;;;11.23;7.95;;;;;;;22.53;85.38;95347.28;1032745;28;20026;-80
2021/06/19 00:49:13;;;;;;;10.50;7.35;;;;;;;22.67;85.58;95371.97;1024499;29;20143;-82
2021/06/19 00:49:44;;;;;;;11.15;7.90;;;;;;;22.71;85.32;95369.53;1032365;28;20208;-80
2021/06/19 00:50:14;;;;;;;9.65;7.93;;;;;;;22.74;85.26;95377.94;1028167;28;20117;-80
2021/06/19 00:50:45;;;;;;;10.50;8.13;;;;;;;22.77;85.52;95380.13;1024564;29;20110;-81
2021/06/19 00:51:15;;;;;;;12.13;8.45;;;;;;;22.70;85.15;95367.94;1028311;28;20121;-81
2021/06/19 00:51:46;;;;;;;10.02;8.27;;;;;;;22.65;85.08;95363.31;1028477;28;20058;-82
2021/06/19 00:52:17;;;;;;;10.50;8.13;;;;;;;22.79;85.09;95383.38;1024822;28;20047;-82
2021/06/19 00:52:47;;;;;;;8.13;7.32;;;;;;;22.72;85.12;95368.47;1028952;28;20019;-81
2021/06/19 00:53:18;;;;;;;11.52;8.45;;;;;;;22.73;84.78;95368.19;1029361;28;20081;-81
2021/06/19 00:53:49;;;;;;;8.60;7.68;;;;;;;22.76;85.00;95367.69;1033175;28;20498;-81
2021/06/19 00:54:19;;;;;;;14.70;8.10;;;;;;;22.79;85.35;95386.06;1041065;28;20081;-81
2021/06/19 00:54:50;;;;;;;10.10;8.07;;;;;;;22.51;85.39;95344.03;1036977;28;20101;-80
2021/06/19 00:55:20;;;;;;;11.13;7.75;;;;;;;22.72;85.53;95380.09;1028860;28;20556;-81
2021/06/19 00:55:51;;;;;;;13.77;8.43;;;;;;;22.76;85.64;95388.50;1029236;28;20026;-81
2021/06/19 00:56:21;;;;;;;9.25;7.70;;;;;;;22.60;85.79;95360.56;1028859;28;20050;-79
2021/06/19 00:56:52;;;;;;;12.07;8.38;;;;;;;22.68;85.91;95387.13;1029139;28;20082;-80
2021/06/19 00:57:22;;;;;;;10.40;7.88;;;;;;;22.70;85.96;95379.56;1037236;28;20543;-80
2021/06/19 00:57:53;;;;;;;9.88;8.07;;;;;;;22.60;85.83;95374.13;1033000;28;20049;-81
2021/06/19 00:58:24;;;;;;;9.30;7.30;;;;;;;22.69;85.73;95377.13;1032973;28;20101;-80
2021/06/19 00:58:54;;;;;;;10.23;8.27;;;;;;;22.74;85.76;95390.66;1029040;28;20022;-80
2021/06/19 00:59:25;;;;;;;11.35;8.02;;;;;;;22.71;85.89;95397.44;1037080;28;20060;-80
2021/06/19 00:59:56;;;;;;;9.25;7.65;;;;;;;22.66;86.51;95394.72;1033398;28;20031;-80
2021/06/19 01:00:27;;;;;;;11.10;7.63;;;;;;;22.59;86.42;95383.34;1041286;28;20071;-79
2021/06/19 01:00:58;;;;;;;13.80;7.93;;;;;;;22.41;87.07;95373.78;1033240;28;20014;-80
2021/06/19 01:01:28;;;;;;;11.10;7.50;;;;;;;22.21;88.54;95372.59;1033309;28;20022;-80
2021/06/19 01:01:59;;;;;;;10.10;7.55;;;;;;;22.30;88.92;95394.56;1037480;28;20120;-80
2021/06/19 01:02:29;;;;;;;10.48;7.85;;;;;;;22.16;89.37;95385.28;1033085;28;20026;-80
2021/06/19 01:03:00;;;;;;;9.18;7.68;;;;;;;22.15;89.81;95389.88;1033582;28;20014;-80
2021/06/19 01:03:31;;;;;;;13.90;8.85;;;;;;;22.17;89.40;95378.78;1033241;28;20022;-80
2021/06/19 01:04:02;;;;;;;11.75;8.05;;;;;;;22.21;89.20;95377.19;1025052;29;20178;-82
2021/06/19 01:04:32;;;;;;;10.30;8.07;;;;;;;22.35;88.92;95393.78;1024760;29;20020;-82
2021/06/19 01:05:05;;;;;;;11.38;7.55;;;;;;;22.32;88.63;95383.50;1028714;28;20386;-81
2021/06/19 01:05:35;;;;;;;11.40;8.55;;;;;;;22.38;88.36;95382.41;1024893;28;20032;-79
2021/06/19 01:06:06;;;;;;;10.77;7.85;;;;;;;22.37;87.91;95384.31;1025004;28;20023;-80
2021/06/19 01:06:37;;;;;;;11.55;7.85;;;;;;;22.01;88.95;95350.84;1024837;29;20079;-81
2021/06/19 01:07:07;;;;;;;12.65;9.15;;;;;;;22.22;89.89;95413.97;1028851;28;20023;-81
2021/06/19 01:07:38;;;;;;;12.45;8.35;;;;;;;22.06;91.04;95406.88;1036975;28;20077;-80
2021/06/19 01:08:08;;;;;;;9.93;7.57;;;;;;;22.04;91.47;95404.44;1036853;28;20077;-79
2021/06/19 01:08:39;;;;;;;12.07;8.18;;;;;;;21.97;91.93;95401.94;1028681;28;20456;-79
2021/06/19 01:09:10;;;;;;;10.52;8.75;;;;;;;21.89;92.38;95398.94;1028832;28;20079;-80
2021/06/19 01:09:40;;;;;;;14.82;8.52;;;;;;;21.81;92.85;95392.13;1028921;28;20095;-79
2021/06/19 01:10:11;;;;;;;8.85;7.60;;;;;;;21.93;92.64;95403.56;1032954;28;20106;-79
2021/06/19 01:10:42;;;;;;;11.43;9.02;;;;;;;21.86;92.68;95386.75;1036807;28;20022;-79
2021/06/19 01:11:12;;;;;;;8.70;7.80;;;;;;;22.04;92.01;95409.84;1032692;28;20105;-79
2021/06/19 01:11:43;;;;;;;11.80;8.55;;;;;;;21.95;91.59;95385.19;1033012;28;20052;-80
2021/06/19 01:12:14;;;;;;;11.77;8.35;;;;;;;22.12;91.02;95408.50;1033108;28;20121;-80
2021/06/19 01:12:45;;;;;;;11.50;8.18;;;;;;;22.21;90.61;95410.47;1028432;28;20018;-81
2021/06/19 01:13:16;;;;;;;13.30;8.80;;;;;;;22.10;90.78;95395.28;1032814;28;20529;-80
2021/06/19 01:13:46;;;;;;;11.73;8.75;;;;;;;22.15;90.68;95405.28;1036876;28;20056;-80
2021/06/19 01:14:17;;;;;;;9.43;8.43;;;;;;;22.23;90.45;95416.41;1041096;28;20123;-80
2021/06/19 01:14:48;;;;;;;12.18;8.13;;;;;;;22.24;90.70;95414.56;1032913;28;20030;-81
2021/06/19 01:15:19;;;;;;;12.52;9.02;;;;;;;22.23;90.59;95418.31;1036679;28;20181;-80
2021/06/19 01:15:49;;;;;;;11.82;8.35;;;;;;;22.20;90.71;95413.44;1032768;28;20026;-81
2021/06/19 01:16:20;;;;;;;10.50;8.35;;;;;;;22.21;91.04;95421.28;1032847;28;20121;-81
2021/06/19 01:16:51;;;;;;;10.82;8.77;;;;;;;22.15;91.17;95410.69;1032693;28;20380;-81
2021/06/19 01:17:22;;;;;;;10.23;8.70;;;;;;;22.04;91.47;95404.44;1032855;28;20023;-81
2021/06/19 01:17:53;;;;;;;12.45;9.50;;;;;;;22.10;91.72;95418.78;1036690;28;20029;-83
2021/06/19 01:18:23;;;;;;;11.60;8.52;;;;;;;21.94;92.02;95399.75;1032641;28;20466;-81
2021/06/19 01:18:54;;;;;;;10.05;8.55;;;;;;;22.01;92.17;95405.78;1028803;28;20105;-79
2021/06/19 01:19:25;;;;;;;15.35;9.10;;;;;;;21.99;92.52;95402.50;1041123;28;20024;-80
2021/06/19 01:20:07;;;;;;;10.30;9.20;;;;;;;21.88;92.71;95387.31;1028593;28;20034;-82
2021/06/19 01:20:38;;;;;;;10.60;8.52;;;;;;;21.88;93.24;95405.44;1036682;28;20021;-79
2021/06/19 01:21:13;;;;;;;10.93;8.57;;;;;;;21.82;93.33;95389.16;1040950;28;20024;-80
2021/06/19 01:21:43;;;;;;;13.95;9.77;;;;;;;22.06;93.00;95409.56;1036607;28;20021;-79
2021/06/19 01:22:14;;;;;;;13.55;8.98;;;;;;;22.10;92.84;95413.38;1028759;28;20109;-79
2021/06/19 01:22:47;;;;;;;12.68;9.13;;;;;;;22.02;93.10;95401.19;1032704;28;20112;-79
2021/06/19 01:23:17;;;;;;;13.85;8.52;;;;;;;22.08;92.99;95405.53;1032432;28;20050;-81
2021/06/19 01:23:48;;;;;;;10.68;8.73;;;;;;;22.13;92.55;95402.03;1036655;28;20017;-81
2021/06/19 01:24:21;;;;;;;9.02;8.15;;;;;;;22.18;92.51;95412.88;1040666;28;20045;-81
2021/06/19 01:24:52;;;;;;;9.88;8.52;;;;;;;22.04;92.48;95390.91;1036935;28;20475;-81
2021/06/19 01:25:25;;;;;;;11.50;9.15;;;;;;;22.23;92.47;95418.31;1028460;28;20105;-80
2021/06/19 01:25:56;;;;;;;11.98;9.07;;;;;;;22.09;92.81;95398.25;1032627;28;20432;-81
2021/06/19 01:26:28;;;;;;;13.27;8.85;;;;;;;22.01;93.18;95392.25;1032699;28;20050;-81
2021/06/19 01:26:58;;;;;;;12.52;8.90;;;;;;;22.09;93.34;95415.28;1028781;28;20504;-81
2021/06/19 01:27:29;;;;;;;9.68;8.68;;;;;;;22.11;93.40;95412.31;1028767;28;20069;-81
2021/06/19 01:28:00;;;;;;;10.85;8.35;;;;;;;21.93;93.31;95383.81;1036591;28;20018;-80
2021/06/19 01:28:31;;;;;;;12.13;8.80;;;;;;;21.99;93.41;95397.09;1032667;28;20022;-80
2021/06/19 01:29:01;;;;;;;10.00;8.52;;;;;;;22.14;93.35;95414.50;1032688;28;20177;-81
2021/06/19 01:29:32;;;;;;;10.82;8.98;;;;;;;22.14;93.24;95407.19;1032744;28;20446;-80
2021/06/19 01:30:05;;;;;;;12.05;8.60;;;;;;;22.14;92.78;95400.97;1028882;28;20054;-81
2021/06/19 01:30:36;;;;;;;13.50;8.60;;;;;;;22.06;92.74;95382.53;1032777;28;20522;-80
2021/06/19 01:31:07;;;;;;;11.55;8.35;;;;;;;22.21;92.99;95409.66;1028601;28;20480;-80
2021/06/19 01:31:40;;;;;;;9.75;8.23;;;;;;;22.20;93.09;95413.44;1024891;29;20122;-80
2021/06/19 01:32:11;;;;;;;11.90;8.38;;;;;;;22.23;92.71;95413.72;1028562;28;20508;-81
2021/06/19 01:32:41;;;;;;;10.48;9.30;;;;;;;22.24;92.74;95409.16;1036889;28;20022;-80
2021/06/19 01:33:12;;;;;;;11.20;9.00;;;;;;;22.26;92.59;95412.41;1040751;28;20427;-80
2021/06/19 01:33:44;;;;;;;12.00;9.10;;;;;;;22.08;93.20;95392.00;1036797;28;20507;-80
2021/06/19 01:34:14;;;;;;;14.27;9.20;;;;;;;22.11;93.52;95398.78;1032595;28;20072;-80
2021/06/19 01:34:45;;;;;;;12.95;8.98;;;;;;;22.09;93.77;95403.66;1036927;28;20022;-80
2021/06/19 01:35:16;;;;;;;13.45;8.73;;;;;;;22.04;94.05;95399.03;1032609;28;20026;-80
2021/06/19 01:35:46;;;;;;;12.52;8.48;;;;;;;21.99;93.78;95386.28;1032464;28;20022;-80
2021/06/19 01:36:18;;;;;;;10.63;8.65;;;;;;;22.07;93.46;95384.97;1032660;28;20109;-80
2021/06/19 01:36:48;;;;;;;13.20;9.07;;;;;;;22.19;93.16;95395.59;1032705;28;20021;-80
2021/06/19 01:37:19;;;;;;;12.43;8.68;;;;;;;22.28;92.47;95394.03;1032716;28;20097;-80
2021/06/19 01:37:51;;;;;;;12.48;8.57;;;;;;;22.27;92.48;95405.91;1032672;28;20076;-80
2021/06/19 01:38:22;;;;;;;13.35;9.00;;;;;;;22.21;92.39;95391.53;1040465;28;20021;-80
2021/06/19 01:38:54;;;;;;;11.40;8.32;;;;;;;22.27;92.10;95392.38;1032629;28;20082;-80
2021/06/19 01:39:24;;;;;;;11.80;9.05;;;;;;;22.33;91.86;95388.66;1032564;28;20065;-80
2021/06/19 01:40:14;;;;;;;9.63;8.60;;;;;;;22.42;91.33;95396.25;1024478;28;20027;-80
2021/06/19 01:40:45;;;;;;;17.02;8.45;;;;;;;22.31;91.30;95385.41;1028461;28;20019;-80
2021/06/19 01:41:18;;;;;;;10.88;8.43;;;;;;;22.19;91.33;95368.53;1032547;28;20030;-80
2021/06/19 01:41:49;;;;;;;13.55;8.52;;;;;;;22.42;91.32;95393.56;1024665;29;20102;-80
2021/06/19 01:42:20;;;;;;;11.75;8.90;;;;;;;22.40;90.90;95385.69;1024628;29;20413;-80
2021/06/19 01:42:50;;;;;;;9.93;8.30;;;;;;;22.46;91.02;95394.66;1036611;28;20029;-80
2021/06/19 01:43:21;;;;;;;11.90;9.05;;;;;;;22.32;90.77;95378.88;1032707;28;20161;-80
2021/06/19 01:44:02;;;;;;;13.00;8.52;;;;;;;22.47;90.94;95393.53;1032796;28;20028;-80
2021/06/19 01:44:33;;;;;;;12.27;8.82;;;;;;;22.46;90.99;95405.47;1036693;28;20507;-81
2021/06/19 01:45:05;;;;;;;11.43;8.30;;;;;;;22.32;91.29;95381.59;1028771;28;20022;-80
2021/06/19 01:45:35;;;;;;;11.45;8.48;;;;;;;22.34;91.09;95382.13;1028619;28;20117;-80
2021/06/19 01:46:06;;;;;;;15.38;8.57;;;;;;;22.44;90.86;95396.81;1028750;28;20050;-80
2021/06/19 01:46:40;;;;;;;13.00;8.93;;;;;;;22.55;90.47;95410.13;1028615;28;20118;-80
2021/06/19 01:47:10;;;;;;;9.73;8.73;;;;;;;22.50;90.24;95399.28;1036799;28;20022;-81
2021/06/19 01:47:42;;;;;;;12.32;9.05;;;;;;;22.46;90.26;95402.75;1028529;28;20019;-80
2021/06/19 01:48:12;;;;;;;10.20;8.35;;;;;;;22.58;89.95;95420.38;1028317;28;20110;-81
2021/06/19 01:48:43;;;;;;;9.60;8.57;;;;;;;22.46;89.87;95402.75;1032617;28;20072;-80
2021/06/19 01:49:13;;;;;;;13.90;8.05;;;;;;;22.53;90.40;95424.97;1028794;28;20046;-80
2021/06/19 01:49:44;;;;;;;10.30;8.25;;;;;;;22.51;90.17;95419.03;1032503;28;20125;-81
2021/06/19 01:50:17;;;;;;;14.23;8.85;;;;;;;22.51;90.24;95430.66;1028563;28;20130;-80
2021/06/19 01:50:47;;;;;;;12.32;8.90;;;;;;;22.49;90.35;95422.00;1028389;28;20156;-80
2021/06/19 01:51:18;;;;;;;12.98;8.90;;;;;;;22.54;90.35;95423.91;1028470;28;20035;-80
2021/06/19 01:51:48;;;;;;;12.27;8.52;;;;;;;22.53;90.44;95420.38;1032601;28;20023;-80
2021/06/19 01:52:19;;;;;;;12.05;8.73;;;;;;;22.52;90.40;95420.63;1028698;28;20105;-80
2021/06/19 01:52:50;;;;;;;11.50;8.85;;;;;;;22.46;90.57;95405.47;1032550;28;20085;-80
2021/06/19 01:53:21;;;;;;;10.40;8.55;;;;;;;22.49;90.57;95411.16;1034307;28;20092;-81
2021/06/19 01:53:55;;;;;;;11.27;8.45;;;;;;;22.43;90.59;95406.78;1034318;28;20500;-81
2021/06/19 01:54:25;;;;;;;10.60;8.77;;;;;;;22.53;90.31;95411.44;1034011;28;20027;-81
2021/06/19 01:54:56;;;;;;;9.48;7.95;;;;;;;22.53;90.02;95412.25;1026264;29;20509;-83
2021/06/19 01:55:26;;;;;;;14.85;8.55;;;;;;;22.48;90.27;95408.72;1033685;28;20098;-82
2021/06/19 01:55:57;;;;;;;12.93;8.40;;;;;;;22.42;90.72;95412.50;1033297;28;20453;-81
2021/06/19 01:56:27;;;;;;;10.90;8.68;;;;;;;22.42;90.67;95413.31;1036700;28;20053;-81
2021/06/19 01:56:58;;;;;;;12.95;8.75;;;;;;;22.47;90.54;95417.91;1036602;28;20121;-82
2021/06/19 01:57:29;;;;;;;12.10;8.57;;;;;;;22.32;90.65;95403.25;1028769;28;20015;-81
2021/06/19 01:58:00;;;;;;;10.70;8.82;;;;;;;22.50;90.40;95425.50;1032401;28;20140;-80
2021/06/19 01:58:30;;;;;;;9.15;8.25;;;;;;;22.44;90.41;95419.25;1028658;28;20030;-80
2021/06/19 01:59:01;;;;;;;9.93;8.15;;;;;;;22.37;90.21;95407.88;1032633;28;20065;-80
2021/06/19 01:59:32;;;;;;;10.68;8.13;;;;;;;22.41;90.10;95406.25;1028608;28;20470;-81
2021/06/19 02:00:17;;;;;;;12.18;7.90;;;;;;;22.44;90.15;95418.47;1024550;29;20042;-79
2021/06/19 02:00:47;;;;;;;12.05;8.88;;;;;;;22.33;90.95;95410.28;1024530;28;20058;-81
2021/06/19 02:01:18;;;;;;;11.00;8.20;;;;;;;22.40;90.91;95424.38;1028575;28;20072;-81
2021/06/19 02:01:48;;;;;;;10.30;8.85;;;;;;;22.21;91.18;95396.13;1024708;29;20027;-81
2021/06/19 02:02:19;;;;;;;9.68;8.27;;;;;;;22.09;91.48;95385.53;1024453;28;20037;-81
2021/06/19 02:02:50;;;;;;;10.93;8.40;;;;;;;22.37;91.00;95433.03;1025185;29;20474;-81
2021/06/19 02:03:21;;;;;;;10.25;8.77;;;;;;;22.37;91.47;95434.94;1032139;28;20026;-81
2021/06/19 02:03:52;;;;;;;9.85;8.23;;;;;;;22.17;91.73;95409.38;1028238;28;20323;-81
2021/06/19 02:04:22;;;;;;;10.18;8.63;;;;;;;22.23;91.76;95419.13;1029120;28;20097;-80
2021/06/19 02:04:53;;;;;;;12.25;8.57;;;;;;;22.32;91.56;95438.41;1032591;28;20498;-79
2021/06/19 02:05:24;;;;;;;16.15;9.15;;;;;;;22.21;91.48;95406.97;1040616;28;20047;-79
2021/06/19 02:05:54;;;;;;;10.60;8.40;;;;;;;22.38;91.16;95434.66;1033091;28;20088;-80
2021/06/19 02:06:25;;;;;;;10.40;8.73;;;;;;;22.31;91.36;95431.38;1024577;29;20050;-80
2021/06/19 02:06:55;;;;;;;12.50;9.10;;;;;;;22.34;90.90;95428.13;1032615;28;20050;-80
2021/06/19 02:07:26;;;;;;;13.52;8.95;;;;;;;22.37;90.71;95424.91;1028614;28;20086;-81
2021/06/19 02:08:03;;;;;;;10.43;8.75;;;;;;;22.33;90.79;95423.81;1032774;28;20105;-83
2021/06/19 02:08:34;;;;;;;12.18;8.55;;;;;;;22.37;91.39;95441.16;1036623;28;20057;-80
2021/06/19 02:09:07;;;;;;;11.57;8.40;;;;;;;22.23;91.67;95423.72;1028054;28;20031;-80
2021/06/19 02:09:38;;;;;;;10.55;8.45;;;;;;;22.28;91.48;95423.78;1036959;28;20471;-80
2021/06/19 02:10:09;;;;;;;9.43;7.93;;;;;;;22.16;91.35;95406.94;1032642;28;20060;-79
2021/06/19 02:10:40;;;;;;;11.35;8.57;;;;;;;22.21;91.34;95412.38;1028295;28;20022;-79
2021/06/19 02:11:11;;;;;;;12.88;9.13;;;;;;;22.15;91.82;95408.00;1028407;28;20031;-79
2021/06/19 02:11:41;;;;;;;11.57;7.97;;;;;;;22.31;91.97;95442.22;1024786;29;20106;-79
2021/06/19 02:12:12;;;;;;;11.93;8.82;;;;;;;22.21;92.20;95420.47;1036760;28;20057;-80
2021/06/19 02:12:43;;;;;;;9.43;7.85;;;;;;;22.16;92.89;95439.38;1036645;28;20057;-79
2021/06/19 02:13:14;;;;;;;12.43;8.38;;;;;;;22.20;92.77;95433.19;1032316;28;20492;-78
2021/06/19 02:13:44;;;;;;;12.07;8.50;;;;;;;22.22;92.61;95433.75;1032619;28;20077;-79
2021/06/19 02:14:16;;;;;;;9.60;8.48;;;;;;;22.10;93.10;95429.59;1036343;28;20028;-79
2021/06/19 02:14:46;;;;;;;12.55;8.98;;;;;;;22.05;93.35;95425.00;1028664;28;20105;-79
2021/06/19 02:15:17;;;;;;;9.60;8.23;;;;;;;22.19;93.38;95441.56;1028500;28;20381;-80
2021/06/19 02:15:48;;;;;;;10.93;8.07;;;;;;;22.08;93.11;95415.53;1028500;28;20023;-81
2021/06/19 02:16:18;;;;;;;12.35;8.30;;;;;;;22.23;92.79;95435.34;1028875;28;20054;-81
2021/06/19 02:16:49;;;;;;;10.85;8.98;;;;;;;22.15;92.65;95421.53;1028532;28;20061;-81
2021/06/19 02:17:19;;;;;;;11.95;8.20;;;;;;;22.16;92.58;95418.56;1024435;29;20165;-81
2021/06/19 02:17:50;;;;;;;10.23;8.40;;;;;;;22.27;92.55;95430.28;1028346;28;20432;-81
2021/06/19 02:18:21;;;;;;;12.20;8.23;;;;;;;22.05;92.48;95395.25;1028345;28;20113;-81
2021/06/19 02:18:51;;;;;;;9.75;7.97;;;;;;;22.26;92.53;95425.91;1036705;28;20068;-81
2021/06/19 02:19:23;;;;;;;9.90;8.40;;;;;;;22.32;92.27;95435.72;1032298;28;20023;-81
2021/06/19 02:19:54;;;;;;;10.32;8.25;;;;;;;22.28;92.19;95426.50;1028367;28;20126;-81
2021/06/19 02:20:25;;;;;;;10.18;8.70;;;;;;;22.18;92.50;95412.88;1032409;28;20115;-82
2021/06/19 02:20:55;;;;;;;13.55;8.20;;;;;;;22.11;92.50;95406.91;1036622;28;20124;-81
2021/06/19 02:21:26;;;;;;;12.85;8.27;;;;;;;22.28;92.30;95425.69;1036671;28;20037;-80
2021/06/19 02:21:56;;;;;;;12.90;8.18;;;;;;;22.23;92.59;95421.84;1032465;28;20117;-80
2021/06/19 02:22:27;;;;;;;11.73;8.15;;;;;;;22.06;92.72;95401.47;1032727;28;20029;-79
2021/06/19 02:22:58;;;;;;;14.10;8.60;;;;;;;22.21;92.85;95423.19;1028434;28;20169;-80
2021/06/19 02:23:28;;;;;;;11.05;8.57;;;;;;;22.07;93.13;95403.91;1028880;28;20105;-83
2021/06/19 02:23:59;;;;;;;10.10;9.02;;;;;;;22.18;92.95;95424.50;1028509;28;20157;-81
2021/06/19 02:24:29;;;;;;;11.65;8.85;;;;;;;22.21;92.67;95424.00;1028649;28;20046;-79
2021/06/19 02:25:01;;;;;;;11.45;8.82;;;;;;;22.18;92.90;95426.41;1028586;28;20097;-81